createdAt,value
2018-10-19T00:01:23.740Z,7.10
2018-10-19T00:03:52.083Z,6.27
2018-10-19T00:06:20.350Z,6.90
2018-10-19T00:08:48.615Z,7.80
2018-10-19T00:11:17.700Z,7.40
2018-10-19T00:13:46.012Z,7.23
2018-10-19T00:16:14.462Z,6.53
2018-10-19T00:18:42.862Z,7.43
2018-10-19T00:21:11.152Z,7.37
2018-10-19T00:23:39.233Z,8.27
2018-10-19T00:26:07.470Z,7.30
2018-10-19T00:28:35.717Z,7.90
2018-10-19T00:31:03.888Z,8.67
2018-10-19T00:33:32.120Z,8.50
2018-10-19T00:36:00.420Z,8.03
2018-10-19T00:38:28.649Z,9.03
2018-10-19T00:40:56.852Z,8.87
2018-10-19T00:43:25.105Z,8.83
2018-10-19T00:45:53.344Z,8.73
2018-10-19T00:48:21.658Z,9.07
2018-10-19T00:50:49.928Z,9.17
2018-10-19T00:53:18.103Z,8.80
2018-10-19T00:55:46.899Z,8.43
2018-10-19T00:58:15.358Z,9.43
2018-10-19T01:00:43.563Z,9.80
2018-10-19T01:03:11.930Z,9.43
2018-10-19T01:05:40.452Z,9.40
2018-10-19T01:08:09.281Z,9.77
2018-10-19T01:10:37.448Z,10.63
2018-10-19T01:13:05.882Z,10.50
2018-10-19T01:15:33.942Z,10.27
2018-10-19T01:18:02.704Z,10.60
2018-10-19T01:20:30.853Z,11.30
2018-10-19T01:22:59.320Z,11.40
2018-10-19T01:25:27.982Z,10.80
2018-10-19T01:27:56.228Z,12.00
2018-10-19T01:30:24.492Z,10.73
2018-10-19T01:32:52.804Z,11.30
2018-10-19T01:35:20.945Z,11.83
2018-10-19T01:37:49.317Z,12.00
2018-10-19T01:40:17.812Z,11.33
2018-10-19T01:42:45.882Z,12.27
2018-10-19T01:45:14.023Z,11.83
2018-10-19T01:47:42.500Z,11.90
2018-10-19T01:50:14.096Z,12.23
2018-10-19T01:52:42.240Z,11.73
2018-10-19T01:55:10.544Z,11.90
2018-10-19T01:57:38.928Z,11.90
2018-10-19T02:00:07.226Z,11.20
2018-10-19T02:02:35.393Z,11.57
2018-10-19T02:05:03.786Z,12.40
2018-10-19T02:07:31.930Z,12.70
2018-10-19T02:10:00.153Z,10.83
2018-10-19T02:12:28.473Z,12.03
2018-10-19T02:14:56.837Z,12.70
2018-10-19T02:17:25.031Z,13.90
2018-10-19T02:19:53.568Z,12.50
2018-10-19T02:22:21.797Z,12.57
2018-10-19T02:24:49.953Z,12.03
2018-10-19T02:27:18.183Z,11.33
2018-10-19T02:29:46.358Z,13.40
2018-10-19T02:32:14.634Z,13.27
2018-10-19T02:34:42.798Z,13.20
2018-10-19T02:37:10.952Z,13.63
2018-10-19T02:39:39.207Z,12.50
2018-10-19T02:42:07.547Z,13.93
2018-10-19T02:44:35.742Z,12.57
2018-10-19T02:47:04.201Z,11.50
2018-10-19T02:49:32.374Z,13.83
2018-10-19T02:52:00.474Z,12.80
2018-10-19T02:54:28.700Z,13.07
2018-10-19T02:56:57.510Z,12.63
2018-10-19T02:59:26.334Z,12.67
2018-10-19T03:01:54.700Z,13.30
2018-10-19T03:04:23.133Z,11.40
2018-10-19T03:06:51.346Z,11.73
2018-10-19T03:09:19.531Z,13.10
2018-10-19T03:11:47.718Z,13.33
2018-10-19T03:14:15.868Z,12.90
2018-10-19T03:16:44.265Z,13.10
2018-10-19T03:19:12.485Z,12.10
2018-10-19T03:21:40.789Z,13.90
2018-10-19T03:24:08.996Z,13.33
2018-10-19T03:26:37.163Z,14.17
2018-10-19T03:29:05.520Z,13.00
2018-10-19T03:31:33.724Z,12.83
2018-10-19T03:34:02.067Z,14.07
2018-10-19T03:36:30.342Z,13.87
2018-10-19T03:38:58.852Z,13.27
2018-10-19T03:41:27.041Z,13.50
2018-10-19T03:43:55.222Z,13.73
2018-10-19T03:46:23.506Z,15.03
2018-10-19T03:48:51.814Z,14.00
2018-10-19T03:51:20.063Z,13.27
2018-10-19T03:53:48.202Z,12.27
2018-10-19T03:56:16.371Z,15.43
2018-10-19T03:58:44.685Z,13.23
2018-10-19T04:01:12.892Z,12.83
2018-10-19T04:03:41.258Z,14.43
2018-10-19T04:06:09.336Z,12.53
2018-10-19T04:08:37.374Z,12.87
2018-10-19T04:11:05.717Z,13.07
2018-10-19T04:13:33.856Z,14.37
2018-10-19T04:16:02.374Z,14.87
2018-10-19T04:18:30.603Z,15.00
2018-10-19T04:20:58.875Z,14.40
2018-10-19T04:23:27.055Z,14.83
2018-10-19T04:25:55.314Z,14.57
2018-10-19T04:28:23.478Z,15.60
2018-10-19T04:30:51.695Z,14.33
2018-10-19T04:33:19.876Z,13.50
2018-10-19T04:35:48.005Z,15.77
2018-10-19T04:38:16.381Z,14.83
2018-10-19T04:40:44.968Z,15.70
2018-10-19T04:43:13.262Z,14.87
2018-10-19T04:45:41.836Z,15.70
2018-10-19T04:48:10.485Z,14.47
2018-10-19T04:50:38.783Z,15.07
2018-10-19T04:53:08.523Z,14.83
2018-10-19T04:55:36.971Z,15.67
2018-10-19T04:58:05.413Z,13.80
2018-10-19T05:00:33.832Z,13.83
2018-10-19T05:03:02.308Z,14.83
2018-10-19T05:05:30.508Z,15.67
2018-10-19T05:07:58.572Z,14.93
2018-10-19T05:10:26.550Z,14.90
2018-10-19T05:12:54.728Z,14.90
2018-10-19T05:15:22.945Z,14.90
2018-10-19T05:17:51.174Z,14.90
2018-10-19T05:20:19.453Z,15.43
2018-10-19T05:22:47.570Z,15.63
2018-10-19T05:25:16.009Z,15.67
2018-10-19T05:27:44.163Z,15.37
2018-10-19T05:30:13.057Z,16.63
2018-10-19T05:32:42.358Z,14.60
2018-10-19T05:35:10.799Z,15.30
2018-10-19T05:37:40.044Z,14.53
2018-10-19T05:40:11.275Z,17.27
2018-10-19T05:42:40.073Z,15.67
2018-10-19T05:45:11.259Z,18.53
2018-10-19T05:47:39.906Z,17.40
2018-10-19T05:50:09.933Z,18.00
2018-10-19T05:52:38.333Z,18.47
2018-10-19T05:55:07.015Z,18.27
2018-10-19T05:57:35.520Z,17.32
2018-10-19T06:00:04.406Z,19.87
2018-10-19T06:02:32.746Z,17.47
2018-10-19T06:05:01.345Z,20.30
2018-10-19T06:07:29.600Z,18.50
2018-10-19T06:09:58.131Z,18.90
2018-10-19T06:12:26.351Z,19.60
2018-10-19T06:14:55.047Z,16.53
2018-10-19T06:17:23.493Z,19.45
2018-10-19T06:19:52.233Z,17.70
2018-10-19T06:22:20.444Z,17.47
2018-10-19T06:24:48.603Z,17.53
2018-10-19T06:27:17.962Z,18.20
2018-10-19T06:29:46.167Z,19.67
2018-10-19T06:32:17.010Z,19.77
2018-10-19T06:34:45.286Z,20.20
2018-10-19T06:37:13.578Z,18.70
2018-10-19T06:39:41.736Z,17.87
2018-10-19T06:42:09.984Z,20.97
2018-10-19T06:44:38.199Z,21.17
2018-10-19T06:47:07.193Z,18.63
2018-10-19T06:49:35.205Z,20.23
2018-10-19T06:52:03.443Z,19.23
2018-10-19T06:54:31.617Z,19.30
2018-10-19T06:56:59.826Z,18.97
2018-10-19T06:59:28.169Z,19.97
2018-10-19T07:01:56.457Z,19.97
2018-10-19T07:04:24.663Z,19.27
2018-10-19T07:06:52.817Z,18.97
2018-10-19T07:09:21.257Z,18.87
2018-10-19T07:11:49.440Z,17.70
2018-10-19T07:14:18.432Z,19.33
2018-10-19T07:16:46.483Z,18.93
2018-10-19T07:19:14.709Z,18.17
2018-10-19T07:21:42.985Z,21.77
2018-10-19T07:24:11.128Z,17.90
2018-10-19T07:26:39.385Z,19.07
2018-10-19T07:29:07.650Z,20.60
2018-10-19T07:31:35.853Z,19.43
2018-10-19T07:34:04.946Z,17.87
2018-10-19T07:36:33.546Z,20.50
2018-10-19T07:39:01.741Z,19.90
2018-10-19T07:41:30.093Z,20.63
2018-10-19T07:43:58.402Z,19.40
2018-10-19T07:46:27.209Z,20.20
2018-10-19T07:48:55.361Z,18.37
2018-10-19T07:51:23.647Z,19.00
2018-10-19T07:53:51.785Z,20.07
2018-10-19T07:56:20.601Z,19.20
2018-10-19T07:58:48.831Z,19.30
2018-10-19T08:01:17.113Z,18.70
2018-10-19T08:03:45.382Z,19.80
2018-10-19T08:06:13.641Z,18.87
2018-10-19T08:08:41.990Z,20.07
2018-10-19T08:11:10.301Z,19.40
2018-10-19T08:13:38.395Z,19.43
2018-10-19T08:16:06.503Z,18.97
2018-10-19T08:18:39.160Z,20.50
2018-10-19T08:21:07.882Z,20.10
2018-10-19T08:23:36.248Z,19.87
2018-10-19T08:26:04.696Z,18.90
2018-10-19T08:28:33.269Z,19.90
2018-10-19T08:31:01.468Z,20.87
2018-10-19T08:33:29.657Z,19.50
2018-10-19T08:35:57.935Z,18.90
2018-10-19T08:38:26.751Z,18.97
2018-10-19T08:40:55.057Z,18.93
2018-10-19T08:43:23.201Z,17.63
2018-10-19T08:45:51.605Z,17.93
2018-10-19T08:48:19.817Z,18.57
2018-10-19T08:50:48.076Z,17.30
2018-10-19T08:53:16.408Z,18.90
2018-10-19T08:55:44.484Z,18.80
2018-10-19T08:58:19.422Z,18.23
2018-10-19T09:00:47.511Z,18.63
2018-10-19T09:03:15.860Z,19.03
2018-10-19T09:05:44.045Z,16.37
2018-10-19T09:08:12.275Z,17.23
2018-10-19T09:10:40.688Z,18.40
2018-10-19T09:13:08.812Z,16.67
2018-10-19T09:15:36.900Z,17.40
2018-10-19T09:18:12.155Z,20.10
2018-10-19T09:20:40.483Z,18.10
2018-10-19T09:23:08.782Z,17.60
2018-10-19T09:25:37.019Z,17.07
2018-10-19T09:28:05.343Z,17.93
2018-10-19T09:30:33.543Z,18.33
2018-10-19T09:33:01.849Z,18.07
2018-10-19T09:35:30.209Z,16.27
2018-10-19T09:37:58.483Z,19.50
2018-10-19T09:40:26.831Z,17.63
2018-10-19T09:42:55.238Z,17.00
2018-10-19T09:45:23.519Z,17.33
2018-10-19T09:47:51.747Z,17.10
2018-10-19T09:50:19.933Z,16.77
2018-10-19T09:52:48.183Z,17.23
2018-10-19T09:55:16.553Z,17.87
2018-10-19T09:57:44.962Z,18.80
2018-10-19T10:00:18.761Z,17.70
2018-10-19T10:02:47.771Z,18.57
2018-10-19T10:05:16.010Z,18.83
2018-10-19T10:07:44.308Z,18.07
2018-10-19T10:10:12.671Z,17.33
2018-10-19T10:12:41.183Z,16.53
2018-10-19T10:15:09.327Z,16.17
2018-10-19T10:17:37.560Z,18.27
2018-10-19T10:20:06.979Z,16.47
2018-10-19T10:22:35.187Z,17.17
2018-10-19T10:25:03.487Z,16.67
2018-10-19T10:27:31.561Z,16.13
2018-10-19T10:29:59.930Z,15.77
2018-10-19T10:32:28.156Z,16.27
2018-10-19T10:34:56.289Z,16.23
2018-10-19T10:37:24.542Z,17.67
2018-10-19T10:39:52.674Z,16.93
2018-10-19T10:42:20.924Z,20.33
2018-10-19T10:44:49.268Z,16.93
2018-10-19T10:47:17.445Z,17.30
2018-10-19T10:49:45.518Z,15.37
2018-10-19T10:52:13.730Z,15.60
2018-10-19T10:54:41.992Z,16.37
2018-10-19T10:57:10.219Z,15.13
2018-10-19T10:59:38.399Z,16.47
2018-10-19T11:02:06.670Z,15.23
2018-10-19T11:04:34.859Z,15.70
2018-10-19T11:07:03.206Z,17.90
2018-10-19T11:09:31.340Z,18.67
2018-10-19T11:11:59.577Z,18.57
2018-10-19T11:14:27.761Z,17.00
2018-10-19T11:16:55.963Z,18.53
2018-10-19T11:19:24.394Z,25.13
2018-10-19T11:21:52.773Z,16.50
2018-10-19T11:24:20.900Z,16.90
2018-10-19T11:26:49.232Z,16.20
2018-10-19T11:29:17.558Z,16.50
2018-10-19T11:31:46.310Z,15.90
2018-10-19T11:34:14.527Z,15.50
2018-10-19T11:36:45.506Z,16.37
2018-10-19T11:39:13.684Z,15.70
2018-10-19T11:41:42.030Z,16.17
2018-10-19T11:44:10.172Z,18.67
2018-10-19T11:46:38.308Z,15.50
2018-10-19T11:49:06.635Z,15.80
2018-10-19T11:51:34.899Z,16.80
2018-10-19T11:54:03.369Z,16.00
2018-10-19T11:56:31.499Z,16.60
2018-10-19T11:58:59.657Z,19.53
2018-10-19T12:01:28.102Z,16.47
2018-10-19T12:03:56.336Z,14.70
2018-10-19T12:06:24.710Z,16.07
2018-10-19T12:08:52.869Z,18.83
2018-10-19T12:11:21.636Z,17.37
2018-10-19T12:13:49.955Z,17.50
2018-10-19T12:16:18.359Z,15.70
2018-10-19T12:18:46.623Z,15.67
2018-10-19T12:21:15.081Z,15.40
2018-10-19T12:23:43.235Z,20.73
2018-10-19T12:26:11.534Z,15.87
2018-10-19T12:28:39.622Z,16.23
2018-10-19T12:31:08.412Z,17.97
2018-10-19T12:33:36.590Z,16.87
2018-10-19T12:36:05.263Z,16.20
2018-10-19T12:38:33.440Z,14.80
2018-10-19T12:41:01.744Z,15.70
2018-10-19T12:43:29.903Z,18.60
2018-10-19T12:47:43.209Z,17.47
2018-10-19T12:50:11.750Z,17.10
2018-10-19T12:52:39.933Z,15.30
2018-10-19T12:55:08.820Z,16.33
2018-10-19T12:57:36.996Z,15.37
2018-10-19T13:00:07.377Z,13.43
2018-10-19T13:02:35.496Z,14.70
2018-10-19T13:05:03.784Z,15.20
2018-10-19T13:07:31.974Z,15.57
2018-10-19T13:10:00.419Z,14.83
2018-10-19T13:12:28.550Z,15.00
2018-10-19T13:14:56.825Z,15.40
2018-10-19T13:17:25.048Z,15.97
2018-10-19T13:19:53.369Z,17.40
2018-10-19T13:22:21.591Z,17.53
2018-10-19T13:24:49.826Z,16.47
2018-10-19T13:27:18.025Z,15.90
2018-10-19T13:29:46.256Z,16.17
2018-10-19T13:32:14.529Z,17.70
2018-10-19T13:34:42.769Z,17.60
2018-10-19T13:37:10.951Z,18.00
2018-10-19T13:39:39.139Z,17.10
2018-10-19T13:42:07.873Z,16.90
2018-10-19T13:44:36.064Z,17.03
2018-10-19T13:47:04.955Z,17.37
2018-10-19T13:49:33.307Z,17.20
2018-10-19T13:52:01.753Z,16.27
2018-10-19T13:54:30.010Z,17.67
2018-10-19T13:56:59.277Z,20.00
2018-10-19T13:59:27.912Z,20.43
2018-10-19T14:01:56.613Z,19.33
2018-10-19T14:04:25.484Z,18.73
2018-10-19T14:06:54.075Z,20.03
2018-10-19T14:09:22.827Z,17.90
2018-10-19T14:11:52.156Z,18.13
2018-10-19T14:14:30.473Z,18.90
2018-10-19T14:16:59.706Z,19.20
2018-10-19T14:19:28.238Z,19.23
2018-10-19T14:21:57.108Z,20.20
2018-10-19T14:24:25.907Z,19.50
2018-10-19T14:26:54.590Z,19.80
2018-10-19T14:29:22.997Z,19.60
2018-10-19T14:31:52.420Z,20.77
2018-10-19T14:34:21.170Z,20.63
2018-10-19T14:36:50.270Z,18.77
2018-10-19T14:39:19.378Z,18.97
2018-10-19T14:41:48.057Z,18.93
2018-10-19T14:44:16.903Z,21.10
2018-10-19T14:46:57.297Z,19.70
2018-10-19T14:49:27.128Z,19.80
2018-10-19T14:51:57.002Z,19.80
2018-10-19T14:54:25.881Z,21.77
2018-10-19T14:56:54.754Z,19.77
2018-10-19T14:59:23.506Z,20.80
2018-10-19T15:01:52.701Z,19.90
2018-10-19T15:04:21.710Z,21.67
2018-10-19T15:06:50.190Z,20.53
2018-10-19T15:09:18.669Z,22.13
2018-10-19T15:11:47.440Z,21.37
2018-10-19T15:14:15.729Z,20.07
2018-10-19T15:16:44.224Z,20.97
2018-10-19T15:19:12.889Z,20.93
2018-10-19T15:21:41.553Z,21.07
2018-10-19T15:24:10.456Z,20.00
2018-10-19T15:26:39.135Z,20.70
2018-10-19T15:29:07.721Z,22.10
2018-10-19T15:31:36.639Z,21.37
2018-10-19T15:34:05.490Z,21.47
2018-10-19T15:36:34.122Z,21.77
2018-10-19T15:39:02.713Z,21.47
2018-10-19T15:41:31.256Z,22.20
2018-10-19T15:43:59.979Z,22.30
2018-10-19T15:46:28.540Z,21.93
2018-10-19T15:48:57.248Z,21.13
2018-10-19T15:51:26.184Z,21.00
2018-10-19T15:53:54.591Z,22.87
2018-10-19T15:56:23.956Z,24.00
2018-10-19T15:58:52.484Z,23.37
2018-10-19T16:01:21.063Z,23.93
2018-10-19T16:03:49.643Z,22.83
2018-10-19T16:06:18.538Z,23.87
2018-10-19T16:08:47.041Z,22.90
2018-10-19T16:11:15.976Z,21.40
2018-10-19T16:13:44.541Z,21.40
2018-10-19T16:16:13.106Z,21.87
2018-10-19T16:18:45.131Z,21.80
2018-10-19T16:21:14.866Z,22.80
2018-10-19T16:23:43.179Z,21.93
2018-10-19T16:26:11.612Z,22.00
2018-10-19T16:28:40.209Z,22.27
2018-10-19T16:31:08.985Z,23.20
2018-10-19T16:33:37.485Z,21.07
2018-10-19T16:36:06.485Z,23.70
2018-10-19T16:38:35.221Z,22.93
2018-10-19T16:41:04.772Z,22.50
2018-10-19T16:43:33.643Z,23.03
2018-10-19T16:46:02.297Z,23.83
2018-10-19T16:48:31.018Z,24.13
2018-10-19T16:51:00.443Z,25.20
2018-10-19T16:53:29.178Z,23.33
2018-10-19T16:55:57.805Z,23.30
2018-10-19T16:58:26.604Z,23.27
2018-10-19T17:00:55.025Z,21.93
2018-10-19T17:03:23.849Z,23.83
2018-10-19T17:05:54.019Z,22.60
2018-10-19T17:08:22.712Z,24.30
2018-10-19T17:10:51.913Z,24.83
2018-10-19T17:13:20.605Z,25.93
2018-10-19T17:15:48.967Z,26.80
2018-10-19T17:18:17.637Z,24.77
2018-10-19T17:20:46.725Z,26.30
2018-10-19T17:23:15.245Z,25.80
2018-10-19T17:25:44.147Z,24.73
2018-10-19T17:28:12.719Z,25.57
2018-10-19T17:30:41.363Z,26.63
2018-10-19T17:33:11.007Z,24.00
2018-10-19T17:35:40.023Z,24.47
2018-10-19T17:38:08.478Z,24.77
2018-10-19T17:40:37.075Z,24.30
2018-10-19T17:43:06.113Z,23.57
2018-10-19T17:45:34.366Z,22.97
2018-10-19T17:48:02.840Z,22.80
2018-10-19T17:50:31.944Z,22.27
2018-10-19T17:53:00.906Z,22.10
2018-10-19T17:55:29.308Z,21.70
2018-10-19T17:57:57.697Z,20.63
2018-10-19T18:00:26.340Z,20.83
2018-10-19T18:02:54.667Z,22.30
2018-10-19T18:05:23.080Z,21.97
2018-10-19T18:07:51.758Z,22.80
2018-10-19T18:10:20.175Z,22.17
2018-10-19T18:12:48.656Z,21.47
2018-10-19T18:15:17.260Z,21.93
2018-10-19T18:17:45.842Z,20.97
2018-10-19T18:20:14.707Z,22.87
2018-10-19T18:22:44.350Z,20.87
2018-10-19T18:25:16.319Z,19.70
2018-10-19T18:27:45.048Z,21.00
2018-10-19T18:30:13.632Z,20.20
2018-10-19T18:32:42.125Z,20.10
2018-10-19T18:35:11.679Z,19.27
2018-10-19T18:37:40.550Z,19.70
2018-10-19T18:40:10.812Z,20.53
2018-10-19T18:42:39.342Z,19.37
2018-10-19T18:45:08.801Z,18.20
2018-10-19T18:47:37.722Z,19.77
2018-10-19T18:50:07.209Z,20.43
2018-10-19T18:52:35.562Z,19.57
2018-10-19T18:55:04.119Z,19.83
2018-10-19T18:57:32.433Z,20.10
2018-10-19T19:00:01.220Z,19.07
2018-10-19T19:02:29.594Z,21.20
2018-10-19T19:04:58.492Z,20.80
2018-10-19T19:07:26.836Z,20.03
2018-10-19T19:10:00.877Z,18.13
2018-10-19T19:12:29.215Z,20.37
2018-10-19T19:14:57.768Z,20.70
2018-10-19T19:17:26.500Z,21.43
2018-10-19T19:20:00.475Z,19.50
2018-10-19T19:22:29.564Z,20.53
2018-10-19T19:25:03.451Z,19.20
2018-10-19T19:27:31.685Z,20.00
2018-10-19T19:30:00.016Z,19.57
2018-10-19T19:32:28.470Z,19.10
2018-10-19T19:34:56.877Z,19.23
2018-10-19T19:37:25.354Z,19.33
2018-10-19T19:39:54.000Z,19.70
2018-10-19T19:42:27.843Z,19.00
2018-10-19T19:44:56.232Z,20.03
2018-10-19T19:47:30.033Z,18.20
2018-10-19T19:50:02.589Z,17.23
2018-10-19T19:52:31.015Z,18.33
2018-10-19T19:54:59.429Z,19.13
2018-10-19T19:57:28.134Z,19.30
2018-10-19T19:59:56.521Z,20.20
2018-10-19T20:02:25.091Z,19.23
2018-10-19T20:04:53.376Z,19.50
2018-10-19T20:07:21.676Z,18.30
2018-10-19T20:09:50.939Z,19.50
2018-10-19T20:12:19.773Z,19.13
2018-10-19T20:14:48.145Z,18.90
2018-10-19T20:17:16.653Z,18.50
2018-10-19T20:19:44.995Z,20.27
2018-10-19T20:22:13.393Z,19.23
2018-10-19T20:24:41.727Z,18.70
2018-10-19T20:27:10.162Z,19.07
2018-10-19T20:29:38.436Z,19.60
2018-10-19T20:32:06.918Z,20.40
2018-10-19T20:34:35.418Z,19.97
2018-10-19T20:37:03.928Z,20.53
2018-10-19T20:39:32.198Z,20.63
2018-10-19T20:42:00.419Z,18.77
2018-10-19T20:44:28.670Z,19.63
2018-10-19T20:46:57.124Z,18.87
2018-10-19T20:49:26.181Z,19.60
2018-10-19T20:51:54.449Z,18.60
2018-10-19T20:54:23.726Z,20.80
2018-10-19T20:56:52.111Z,19.13
2018-10-19T20:59:20.409Z,19.03
2018-10-19T21:01:49.201Z,20.23
2018-10-19T21:04:17.666Z,19.67
2018-10-19T21:06:46.172Z,21.13
2018-10-19T21:09:14.485Z,19.63
2018-10-19T21:11:42.992Z,21.37
2018-10-19T21:14:11.392Z,18.53
2018-10-19T21:16:39.548Z,18.70
2018-10-19T21:19:08.440Z,20.47
2018-10-19T21:21:36.721Z,20.33
2018-10-19T21:24:05.339Z,19.53
2018-10-19T21:26:33.577Z,19.80
2018-10-19T21:29:01.812Z,20.13
2018-10-19T21:31:30.071Z,18.53
2018-10-19T21:33:58.378Z,19.20
2018-10-19T21:36:26.702Z,18.20
2018-10-19T21:38:55.083Z,19.30
2018-10-19T21:41:23.352Z,17.93
2018-10-19T21:43:51.670Z,18.73
2018-10-19T21:46:19.870Z,18.30
2018-10-19T21:48:48.164Z,19.27
2018-10-19T21:51:16.437Z,19.13
2018-10-19T21:53:44.826Z,19.77
2018-10-19T21:56:13.489Z,19.00
2018-10-19T21:58:41.682Z,20.33
2018-10-19T22:01:10.035Z,19.93
2018-10-19T22:03:38.417Z,19.60
2018-10-19T22:06:06.720Z,19.83
2018-10-19T22:08:34.882Z,20.67
2018-10-19T22:11:04.172Z,19.53
2018-10-19T22:13:32.374Z,19.13
2018-10-19T22:16:00.856Z,19.40
2018-10-19T22:18:29.015Z,18.83
2018-10-19T22:20:57.380Z,20.17
2018-10-19T22:23:25.964Z,20.67
2018-10-19T22:25:54.217Z,18.87
2018-10-19T22:28:22.585Z,18.27
2018-10-19T22:30:50.824Z,19.40
2018-10-19T22:33:19.083Z,19.67
2018-10-19T22:35:47.293Z,19.00
2018-10-19T22:38:15.582Z,18.17
2018-10-19T22:40:43.773Z,18.30
2018-10-19T22:43:12.190Z,18.80
2018-10-19T22:45:40.412Z,18.13
2018-10-19T22:48:08.674Z,17.87
2018-10-19T22:50:36.836Z,17.17
2018-10-19T22:53:05.395Z,17.53
2018-10-19T22:55:33.584Z,17.33
2018-10-19T22:58:01.911Z,17.33
2018-10-19T23:00:30.258Z,17.93
2018-10-19T23:02:58.686Z,18.60
2018-10-19T23:05:26.951Z,17.30
2018-10-19T23:07:55.225Z,17.77
2018-10-19T23:10:23.427Z,18.43
2018-10-19T23:12:51.672Z,17.43
2018-10-19T23:15:19.848Z,19.00
2018-10-19T23:17:48.038Z,19.60
2018-10-19T23:20:16.192Z,17.50
2018-10-19T23:22:44.319Z,17.37
2018-10-19T23:25:12.547Z,17.23
2018-10-19T23:27:40.735Z,17.10
2018-10-19T23:30:08.932Z,17.60
2018-10-19T23:32:37.097Z,16.37
2018-10-19T23:35:06.835Z,18.60
2018-10-19T23:37:35.210Z,19.70
2018-10-19T23:40:03.569Z,16.77
2018-10-19T23:42:31.817Z,18.47
2018-10-19T23:45:00.062Z,17.63
2018-10-19T23:47:28.214Z,17.40
2018-10-19T23:49:56.368Z,18.97
2018-10-19T23:52:27.574Z,18.13
2018-10-19T23:54:55.765Z,17.70
2018-10-19T23:57:24.092Z,17.90
2018-10-19T23:59:52.241Z,18.70
